Tiempo atmosférico en la estación meteorológica de Vejer De La Frontera, Cádiz (160 m.)



Fecha
DESCASC
Temp. máxima en grados centígrados (hora)
DESCASC
Temp. mínima en grados centígrados (hora)
DESCASC
Temp. media en grados centígrados
DESCASC
Racha de viento máxima en m/sg (hora)
DESCASC
Velocidad máxima media en intervalos de 10 minutos(hora)
DESCASC
Precipitaciones diarias en mm
DESCASC
Precipitaciones de 00:00 a 06:00 en mm
DESCASC
Precipitaciones de 06:00 a 12:00 en mm
DESCASC
Precipitaciones de 12:00 a 18:00 en mm
DESCASC
Precipitaciones de 18:00 a 24:00 en mm
DESCASC
23-06-2019 29.7 (15:30) 18 (04:30) 23.9 8.33 (17:10) 4.72 (17:10) 0 0 0 0 0
22-06-2019 31.1 (16:00) 16.1 (03:00) 23.6 9.17 (16:50) 3.89 (16:40) 0 0 0 0 0
21-06-2019 22.5 (13:30) 16.5 (07:30) 19.5 10.28 (16:40) 6.11 (16:40) 0 0 0 0 0
20-06-2019 24.1 (16:30) 16.5 (00:00) 20.3 10 (19:30) 5.28 (17:40) 0 0 0 0 0
19-06-2019 24.8 (14:30) 17.1 (00:00) 20.9 11.11 (20:10) 6.67 (20:10) 0 0 0 0 0
18-06-2019 24 (16:20) 14.9 (00:00) 19.4 10 (19:40) 5 (18:10) 0 0 0 0 0
17-06-2019 26.5 (13:10) 14.7 (00:00) 20.6 7.22 (16:20) 4.44 (16:20) 0 0 0 0 0
16-06-2019 27 (14:50) 15 (00:00) 21 7.22 (16:20) 4.17 (15:20) 0 0 0 0 0
15-06-2019 26.1 (14:40) 14.1 (00:00) 20.1 11.11 (15:10) 6.39 (21:10) 0 0 0 0 0
14-06-2019 21 (14:50) 15 (00:00) 18 12.22 (05:40) 6.39 (04:20) 0 0 0 0 0
13-06-2019 26.6 (16:40) 16.2 (00:00) 21.4 8.89 (18:20) 5 (18:50) 0 0 0 0 0
12-06-2019 26.2 (16:00) 15.7 (00:00) 21 14.17 (10:10) 5.83 (11:30) 0 0 0 0 0
11-06-2019 21.6 (16:20) 15.4 (00:00) 18.5 11.94 (15:40) 7.22 (15:50) 0 0 0 0 0
10-06-2019 21.8 (16:00) 15.1 (00:00) 18.4 11.94 (17:30) 7.5 (17:30) 0 0 0 0 0
09-06-2019 23.2 (16:00) 16.7 (00:00) 20 11.11 (20:10) 6.39 (20:10) 0 0 0 0 0
08-06-2019 29 (16:30) 15.2 (00:00) 22.1 6.67 (19:40) 3.61 (17:10) 0 0 0 0 0
07-06-2019 23.5 (15:20) 15.6 (00:00) 19.6 9.72 (18:10) 5.83 (17:50) 1.3 0 1.3 0 0
06-06-2019 23.3 (14:40) 14.3 (00:00) 18.8 12.22 (18:00) 6.11 (19:30) 0 0 0 0 0
05-06-2019 21.1 (15:50) 14.5 (00:00) 17.8 11.94 (17:20) 6.39 (19:50) 0 0 0 0 0
04-06-2019 24.7 (15:20) 16.3 (00:00) 20.5 11.11 (16:20) 6.67 (17:00) 0 0 0 0 0
03-06-2019 32.6 (16:30) 17.3 (00:00) 24.9 11.67 (00:30) 5.56 (00:30) 0 0 0 0 0
02-06-2019 27.4 (16:30) 18.2 (00:00) 22.8 14.44 (07:30) 6.94 (07:20) 0 0 0 0 0
01-06-2019 25.2 (15:00) 16.8 (00:00) 21 17.78 (11:40) 8.89 (13:00) 0 0 0 0 0
31-05-2019 24.2 (15:30) 16.4 (00:00) 20.3 19.44 (13:10) 8.89 (14:50) 0 0 0 0 0
30-05-2019 24.4 (16:10) 17.3 (00:00) 20.8 18.33 (18:00) 8.61 (18:00) 0 0 0 0 0
29-05-2019 26.1 (13:40) 17.8 (00:00) 21.9 17.5 (14:20) 7.5 (11:40) 0 0 0 0 0
28-05-2019 27.7 (14:10) 19.2 (00:00) 23.5 8.33 (14:50) 5 (15:00) 0 0 0 0 0
27-05-2019 30.2 (16:40) 17.6 (00:00) 23.9 8.89 (15:20) 5.56 (22:10) 0 0 0 0 0
26-05-2019 29.8 (16:00) 15.8 (00:00) 22.8 9.72 (10:00) 4.72 (10:00) 0 0 0 0 0

Gráficas

Temp. máximas Temp. mínimas Temp. medias Precipitaciones Rachas de viento máximas Velocidades máximas media en intervalos de 10 minutos

Datos horarios

Fecha y hora oficial Temperatura (ºC) Velocidad del viento (km/h) Dirección del viento Racha (km/h) Dirección de racha Precipitación (mm) Presión (hPa) Tendencia (hPa) Humedad (%)
2019-06-24 23:00:00 19.2 -- -- 21 Norte 0 -- -- 91
2019-06-24 22:00:00 20.4 -- -- 24 Norte 0 -- -- 82
2019-06-24 21:00:00 22.2 -- -- 26 Norte 0 -- -- 72
2019-06-24 20:00:00 23.1 -- -- 28 Norte 0 -- -- 68
2019-06-24 19:00:00 23.7 -- -- 31 Norte 0 -- -- 65
2019-06-24 18:00:00 24.5 -- -- 32 Norte 0 -- -- 61
2019-06-24 17:00:00 24.6 -- -- 35 Norte 0 -- -- 59
2019-06-24 16:00:00 25.4 -- -- 28 Norte 0 -- -- 56
2019-06-24 15:00:00 24.5 -- -- 27 Norte 0 -- -- 56
2019-06-24 14:00:00 24.4 -- -- 26 Norte 0 -- -- 55
2019-06-24 13:00:00 24.1 -- -- 25 Norte 0 -- -- 56
2019-06-24 12:00:00 21.8 -- -- 18 Norte 0 -- -- 65
2019-06-24 11:00:00 21 -- -- 17 Norte 0 -- -- 72
2019-06-24 10:00:00 19.7 -- -- 14 Norte 0 -- -- 79
2019-06-24 09:00:00 18.3 -- -- 5 Norte 0 -- -- 89
2019-06-24 08:00:00 17.5 -- -- 13 Norte 0 -- -- 91
2019-06-24 07:00:00 17.3 -- -- 15 Norte 0 -- -- 94
2019-06-24 06:00:00 17.3 -- -- 12 Norte 0 -- -- 94
2019-06-24 05:00:00 17.7 -- -- 12 Norte 0 -- -- 93
2019-06-24 04:00:00 17.9 -- -- 5 Norte 0 -- -- 89
2019-06-24 03:00:00 18 -- -- 7 Norte 0 -- -- 86
2019-06-24 02:00:00 18.9 -- -- 14 Norte 0 -- -- 88
2019-06-24 01:00:00 18.9 -- -- 15 Norte 0 -- -- 82
2019-06-24 00:00:00 19.7 -- -- 21 Norte 0 -- -- 68
2019-06-23 23:00:00 19.3 -- -- 22 Norte 0 -- -- 74
2019-06-23 22:00:00 20.1 -- -- 20 Norte 0 -- -- 77
2019-06-23 21:00:00 21.9 -- -- 22 Norte 0 -- -- 60
2019-06-23 20:00:00 24.1 -- -- 24 Norte 0 -- -- 57
2019-06-23 19:00:00 24.2 -- -- 24 Norte 0 -- -- 56
2019-06-23 18:00:00 25.7 -- -- 30 Norte 0 -- -- 54
2019-06-23 17:00:00 25.4 -- -- 27 Norte 0 -- -- 55
2019-06-23 16:00:00 27 -- -- 26 Norte 0 -- -- 49
2019-06-23 15:00:00 29.3 -- -- 20 Norte 0 -- -- 43
2019-06-23 14:00:00 28.1 -- -- 21 Norte 0 -- -- 45
2019-06-23 13:00:00 26.4 -- -- 22 Norte 0 -- -- 51
2019-06-23 12:00:00 26.1 -- -- 16 Norte 0 -- -- 54
2019-06-23 11:00:00 24.1 -- -- 18 Norte 0 -- -- 60
2019-06-23 10:00:00 21.8 -- -- 17 Norte 0 -- -- 70
2019-06-23 09:00:00 19.6 -- -- 12 Norte 0 -- -- 83
2019-06-23 08:00:00 18 -- -- 12 Norte 0 -- -- 89
2019-06-23 07:00:00 18.3 -- -- 13 Norte 0 -- -- 88
2019-06-23 06:00:00 18.3 -- -- 13 Norte 0 -- -- 88
2019-06-23 05:00:00 18.3 -- -- 10 Norte 0 -- -- 89
2019-06-23 04:00:00 18.2 -- -- 11 Norte 0 -- -- 89
2019-06-23 03:00:00 18.6 -- -- 15 Norte 0 -- -- 87
2019-06-23 02:00:00 19 -- -- 17 Norte 0 -- -- 85
2019-06-23 01:00:00 19.3 -- -- 16 Norte 0 -- -- 79
2019-06-23 00:00:00 19.9 -- -- 17 Norte 0 -- -- 76
2019-06-22 23:00:00 20.9 -- -- 25 Norte 0 -- -- 65
2019-06-22 22:00:00 22.2 -- -- 23 Norte 0 -- -- 56
2019-06-22 21:00:00 24.4 -- -- 25 Norte 0 -- -- 46
2019-06-22 20:00:00 26.3 -- -- 30 Norte 0 -- -- 35
2019-06-22 19:00:00 28.6 -- -- 28 Norte 0 -- -- 33
2019-06-22 18:00:00 29 -- -- 30 Norte 0 -- -- 32
2019-06-22 17:00:00 29.8 -- -- 33 Norte 0 -- -- 32
2019-06-22 16:00:00 30.9 -- -- 22 Norte 0 -- -- 32
2019-06-22 15:00:00 29.4 -- -- 19 Norte 0 -- -- 36
2019-06-22 14:00:00 28.8 -- -- 23 Norte 0 -- -- 37
2019-06-22 13:00:00 28.6 -- -- 25 Norte 0 -- -- 38
2019-06-22 12:00:00 27.2 -- -- 24 Norte 0 -- -- 43
2019-06-22 11:00:00 24.3 -- -- 21 Norte 0 -- -- 51
2019-06-22 10:00:00 21.1 -- -- 19 Norte 0 -- -- 64
2019-06-22 09:00:00 18.5 -- -- 18 Norte 0 -- -- 75
2019-06-22 08:00:00 16.3 -- -- 18 Norte 0 -- -- 90
2019-06-22 07:00:00 16.2 -- -- 19 Norte 0 -- -- 94
2019-06-22 06:00:00 16.4 -- -- 13 Norte 0 -- -- 95
2019-06-22 05:00:00 16.7 -- -- 13 Norte 0 -- -- 95
2019-06-22 04:00:00 16.5 -- -- 14 Norte 0 -- -- 94
2019-06-22 03:00:00 16.1 -- -- 9 Norte 0 -- -- 87
2019-06-22 02:00:00 16.6 -- -- 6 Norte 0 -- -- 84
2019-06-22 01:00:00 16.6 -- -- 5 Norte 0 -- -- 84
2019-06-22 00:00:00 16.8 -- -- 17 Norte 0 -- -- 82
2019-06-21 23:00:00 17.5 -- -- 19 Norte 0 -- -- 82
2019-06-21 22:00:00 18.1 -- -- 25 Norte 0 -- -- 74
2019-06-21 21:00:00 19.6 -- -- 28 Norte 0 -- -- 66
2019-06-21 20:00:00 20.4 -- -- 31 Norte 0 -- -- 62
2019-06-21 19:00:00 21.8 -- -- 34 Norte 0 -- -- 56
2019-06-21 18:00:00 21.7 -- -- 37 Norte 0 -- -- 55
2019-06-21 17:00:00 21.1 -- -- 37 Norte 0 -- -- 58
2019-06-21 16:00:00 21.5 -- -- 36 Norte 0 -- -- 56
2019-06-21 15:00:00 20.9 -- -- 35 Norte 0 -- -- 55
2019-06-21 14:00:00 21.9 -- -- 35 Norte 0 -- -- 51
2019-06-21 13:00:00 22.2 -- -- 28 Norte 0 -- -- 53
2019-06-21 12:00:00 21.9 -- -- 27 Norte 0 -- -- 56
2019-06-21 11:00:00 21 -- -- 26 Norte 0 -- -- 61
2019-06-21 10:00:00 19.3 -- -- 19 Norte 0 -- -- 66
2019-06-21 09:00:00 17.7 -- -- 17 Norte 0 -- -- 67
2019-06-21 08:00:00 16.8 -- -- 16 Norte 0 -- -- 70
2019-06-21 07:00:00 17.1 -- -- 16 Norte 0 -- -- 71
2019-06-21 06:00:00 17.4 -- -- 16 Norte 0 -- -- 75
2019-06-21 05:00:00 17.1 -- -- 19 Norte 0 -- -- 79
2019-06-21 04:00:00 17.3 -- -- 18 Norte 0 -- -- 84
2019-06-21 03:00:00 17.1 -- -- 20 Norte 0 -- -- 86
2019-06-21 02:00:00 17.2 -- -- 22 Norte 0 -- -- 85
2019-06-21 01:00:00 17.3 -- -- 25 Norte 0 -- -- 85
2019-06-21 00:00:00 17.5 -- -- 30 Norte 0 -- -- 84
2019-06-20 23:00:00 17.7 -- -- 33 Norte 0 -- -- 81
2019-06-20 22:00:00 18.6 -- -- 29 Norte 0 -- -- 76
2019-06-20 21:00:00 19.9 -- -- 30 Norte 0 -- -- 65
2019-06-20 20:00:00 21.1 -- -- 36 Norte 0 -- -- 58
2019-06-20 19:00:00 21.9 -- -- 34 Norte 0 -- -- 52
2019-06-20 18:00:00 23.1 -- -- 33 Norte 0 -- -- 46
2019-06-20 17:00:00 23.1 -- -- 34 Norte 0 -- -- 49
2019-06-20 16:00:00 23.8 -- -- 33 Norte 0 -- -- 48
2019-06-20 15:00:00 23.6 -- -- 32 Norte 0 -- -- 48
2019-06-20 14:00:00 22.6 -- -- 32 Norte 0 -- -- 49
2019-06-20 13:00:00 23 -- -- 27 Norte 0 -- -- 47
2019-06-20 12:00:00 22.1 -- -- 25 Norte 0 -- -- 53
2019-06-20 11:00:00 21.1 -- -- 23 Norte 0 -- -- 56
2019-06-20 10:00:00 19.5 -- -- 21 Norte 0 -- -- 71
2019-06-20 09:00:00 17.4 -- -- 17 Norte 0 -- -- 87
2019-06-20 08:00:00 16.7 -- -- 17 Norte 0 -- -- 90
2019-06-20 07:00:00 16.6 -- -- 18 Norte 0 -- -- 91
2019-06-20 06:00:00 16.7 -- -- 21 Norte 0 -- -- 92
2019-06-20 05:00:00 17.2 -- -- 22 Norte 0 -- -- 92
2019-06-20 04:00:00 17.7 -- -- 20 Norte 0 -- -- 94
2019-06-20 03:00:00 17.9 -- -- 28 Norte 0 -- -- 94
2019-06-20 02:00:00 18.1 -- -- 28 Norte 0 -- -- 91
2019-06-20 01:00:00 18 -- -- 28 Norte 0 -- -- 91
2019-06-20 00:00:00 18.1 -- -- 25 Norte 0 -- -- 91
2019-06-19 23:00:00 18.5 -- -- 31 Norte 0 -- -- 89
2019-06-19 22:00:00 18.6 -- -- 37 Norte 0 -- -- 87
2019-06-19 21:00:00 19.8 -- -- 40 Norte 0 -- -- 78
2019-06-19 20:00:00 21.7 -- -- 36 Norte 0 -- -- 65
2019-06-19 19:00:00 22.8 -- -- 35 Norte 0 -- -- 60
2019-06-19 18:00:00 22.8 -- -- 35 Norte 0 -- -- 57
2019-06-19 17:00:00 23.5 -- -- 32 Norte 0 -- -- 54
2019-06-19 16:00:00 23 -- -- 35 Norte 0 -- -- 55
2019-06-19 15:00:00 23.4 -- -- 35 Norte 0 -- -- 51
2019-06-19 14:00:00 23.5 -- -- 32 Norte 0 -- -- 53
2019-06-19 13:00:00 22.7 -- -- 32 Norte 0 -- -- 56
2019-06-19 12:00:00 21.9 -- -- 27 Norte 0 -- -- 60
2019-06-19 11:00:00 20.8 -- -- 23 Norte 0 -- -- 64
2019-06-19 10:00:00 19 -- -- 19 Norte 0 -- -- 73
2019-06-19 09:00:00 18.1 -- -- 17 Norte 0 -- -- 88
2019-06-19 08:00:00 17.1 -- -- 18 Norte 0 -- -- 94
2019-06-19 07:00:00 17.2 -- -- 18 Norte 0 -- -- 94
2019-06-19 06:00:00 17.2 -- -- 18 Norte 0 -- -- 94
2019-06-19 05:00:00 17.8 -- -- 15 Norte 0 -- -- 93
2019-06-19 04:00:00 17.8 -- -- 18 Norte 0 -- -- 92
2019-06-19 03:00:00 17.9 -- -- 15 Norte 0 -- -- 92
2019-06-19 02:00:00 17.6 -- -- 18 Norte 0 -- -- 93
2019-06-19 01:00:00 17.4 -- -- 19 Norte 0 -- -- 92
2019-06-19 00:00:00 17.5 -- -- 19 Norte 0 -- -- 91
2019-06-18 23:00:00 17.8 -- -- 22 Norte 0 -- -- 89
2019-06-18 22:00:00 18.3 -- -- 27 Norte 0 -- -- 84
2019-06-18 21:00:00 20.2 -- -- 29 Norte 0 -- -- 70
2019-06-18 20:00:00 21.5 -- -- 36 Norte 0 -- -- 61
2019-06-18 19:00:00 22.3 -- -- 33 Norte 0 -- -- 56
2019-06-18 18:00:00 23.8 -- -- 35 Norte 0 -- -- 53
2019-06-18 17:00:00 23.3 -- -- 32 Norte 0 -- -- 53
2019-06-18 16:00:00 23.1 -- -- 30 Norte 0 -- -- 51
2019-06-18 15:00:00 22 -- -- 30 Norte 0 -- -- 53
2019-06-18 14:00:00 21.9 -- -- 23 Norte 0 -- -- 51
2019-06-18 13:00:00 21.4 -- -- 24 Norte 0 -- -- 53
2019-06-18 12:00:00 20.4 -- -- 21 Norte 0 -- -- 57
2019-06-18 11:00:00 18.3 -- -- 19 Norte 0 -- -- 64
2019-06-18 10:00:00 17.3 -- -- 19 Norte 0 -- -- 70
2019-06-18 09:00:00 16.8 -- -- 13 Norte 0 -- -- 78
2019-06-18 08:00:00 15.4 -- -- 8 Norte 0 -- -- 91
2019-06-18 07:00:00 15 -- -- 8 Norte 0 -- -- 92
2019-06-18 06:00:00 15.2 -- -- 13 Norte 0 -- -- 92
2019-06-18 05:00:00 15.7 -- -- 12 Norte 0 -- -- 91
2019-06-18 04:00:00 15.9 -- -- 8 Norte 0 -- -- 92
2019-06-18 03:00:00 16 -- -- 17 Norte 0 -- -- 90
2019-06-18 02:00:00 16.4 -- -- 15 Norte 0 -- -- 89
2019-06-18 01:00:00 16.9 -- -- 13 Norte 0 -- -- 85
2019-06-18 00:00:00 17.3 -- -- 11 Norte 0 -- -- 70
2019-06-17 23:00:00 17.7 -- -- 18 Norte 0 -- -- 71
2019-06-17 22:00:00 18.7 -- -- 15 Norte 0 -- -- 67
2019-06-17 21:00:00 21.6 -- -- 23 Norte 0 -- -- 58
2019-06-17 20:00:00 22.8 -- -- 24 Norte 0 -- -- 53
2019-06-17 19:00:00 23.6 -- -- 26 Norte 0 -- -- 55
2019-06-17 18:00:00 24.2 -- -- 25 Norte 0 -- -- 53
2019-06-17 17:00:00 24 -- -- 26 Norte 0 -- -- 52
2019-06-17 16:00:00 25.4 -- -- 22 Norte 0 -- -- 48
2019-06-17 15:00:00 24.7 -- -- 22 Norte 0 -- -- 49
2019-06-17 14:00:00 24.4 -- -- 19 Norte 0 -- -- 48
2019-06-17 13:00:00 25.7 -- -- 18 Norte 0 -- -- 44
2019-06-17 12:00:00 23.8 -- -- 18 Norte 0 -- -- 52
2019-06-17 11:00:00 21.7 -- -- 17 Norte 0 -- -- 61
2019-06-17 10:00:00 19.4 -- -- 18 Norte 0 -- -- 68
2019-06-17 09:00:00 16.8 -- -- 12 Norte 0 -- -- 73
2019-06-17 08:00:00 15 3 Sur 6 Sur 0 -- -- 79
2019-06-17 07:00:00 15.5 4 Sur 10 Sur 0 -- -- 80
2019-06-17 06:00:00 15.7 6 Sur 9 Sur 0 -- -- 78
2019-06-17 05:00:00 16.1 0 Calma 4 Oeste 0 -- -- 70
2019-06-17 04:00:00 17.1 2 Oeste 7 Oeste 0 -- -- 60
2019-06-17 03:00:00 16.7 3 Oeste 8 Oeste 0 -- -- 70
2019-06-17 02:00:00 16.3 0 Calma 6 Noroeste 0 -- -- 79
2019-06-17 01:00:00 17.7 0 Calma 3 Oeste 0 -- -- 71
2019-06-17 00:00:00 18 0 Calma 5 Oeste 0 -- -- 66
2019-06-16 23:00:00 17.9 3 Oeste 12 Oeste 0 -- -- 78
2019-06-16 22:00:00 18.8 8 Oeste 15 Oeste 0 -- -- 71
2019-06-16 21:00:00 21.2 9 Oeste 20 Oeste 0 -- -- 55
2019-06-16 20:00:00 23 10 Oeste 25 Oeste 0 -- -- 48
2019-06-16 19:00:00 23.9 12 Oeste 24 Oeste 0 -- -- 48
2019-06-16 18:00:00 24.5 13 Oeste 26 Sudoeste 0 -- -- 47
2019-06-16 17:00:00 24.2 13 Oeste 26 Sudoeste 0 -- -- 46
2019-06-16 16:00:00 24 12 Sudoeste 24 Sudoeste 0 -- -- 49
2019-06-16 15:00:00 26.4 9 Sur 23 Sur 0 -- -- 37
2019-06-16 14:00:00 25 9 Sur 21 Sudeste 0 -- -- 41
2019-06-16 13:00:00 22.9 8 Sur 19 Sudeste 0 -- -- 54
2019-06-16 12:00:00 21.7 8 Sudeste 17 Este 0 -- -- 63
2019-06-16 11:00:00 19.8 8 Este 16 Sudeste 0 -- -- 69
2019-06-16 10:00:00 18.3 7 Este 13 Este 0 -- -- 77
2019-06-16 09:00:00 16.8 6 Sur 17 Sur 0 -- -- 89
2019-06-16 08:00:00 15.1 4 Sudeste 12 Sur 0 -- -- 90
2019-06-16 07:00:00 15.4 5 Sur 12 Sur 0 -- -- 90
2019-06-16 06:00:00 15.5 5 Sudoeste 9 Sur 0 -- -- 85
2019-06-16 05:00:00 15.4 4 Sudoeste 8 Oeste 0 -- -- 80
2019-06-16 04:00:00 15.5 4 Este 5 Norte 0 -- -- 73
2019-06-16 03:00:00 16.1 0 Calma 8 Norte 0 -- -- 71
2019-06-16 02:00:00 16.8 3 Noroeste 12 Norte 0 -- -- 69
2019-06-16 01:00:00 17.1 4 Norte 9 Norte 0 -- -- 72
2019-06-16 00:00:00 17 2 Noroeste 16 Oeste 0 -- -- 70
2019-06-15 23:00:00 17.4 8 Noroeste 37 Oeste 0 -- -- 67
2019-06-15 22:00:00 17.3 23 Oeste 35 Oeste 0 -- -- 70
2019-06-15 21:00:00 19 21 Oeste 35 Oeste 0 -- -- 58
2019-06-15 20:00:00 21.7 21 Oeste 35 Oeste 0 -- -- 47
2019-06-15 19:00:00 22.9 19 Oeste 36 Oeste 0 -- -- 43
2019-06-15 18:00:00 24.2 19 Oeste 36 Oeste 0 -- -- 40
2019-06-15 17:00:00 23.8 19 Oeste 37 Oeste 0 -- -- 40
2019-06-15 16:00:00 24.6 19 Oeste 40 Sudoeste 0 -- -- 41
2019-06-15 15:00:00 23.5 22 Sudoeste 36 Sudoeste 0 -- -- 44
2019-06-15 14:00:00 25.3 6 Norte 23 Norte 0 -- -- 33
2019-06-15 13:00:00 24 7 Noroeste 27 Norte 0 -- -- 37
2019-06-15 12:00:00 22.6 7 Norte 24 Norte 0 -- -- 40
2019-06-15 11:00:00 20.1 5 Noroeste 15 Norte 0 -- -- 50
2019-06-15 10:00:00 17.5 4 Noroeste 12 Norte 0 -- -- 58
2019-06-15 09:00:00 15.5 5 Norte 20 Norte 0 -- -- 60
2019-06-15 08:00:00 14.7 6 Noroeste 15 Noroeste 0 -- -- 61
2019-06-15 07:00:00 14.3 10 Noroeste 19 Noroeste 0 -- -- 60
2019-06-15 06:00:00 14.7 9 Noroeste 26 Noroeste 0 -- -- 60
2019-06-15 05:00:00 15.4 10 Noroeste 22 Norte 0 -- -- 61
2019-06-15 04:00:00 16 8 Noroeste 18 Oeste 0 -- -- 70
2019-06-15 03:00:00 15.8 10 Oeste 20 Oeste 0 -- -- 76
2019-06-15 02:00:00 15.6 9 Oeste 19 Oeste 0 -- -- 76
2019-06-15 01:00:00 15.5 8 Oeste 22 Oeste 0 -- -- 71
2019-06-15 00:00:00 15.8 13 Oeste 26 Oeste 0 -- -- 67
2019-06-14 23:00:00 16.1 13 Oeste 35 Oeste 0 -- -- 59
2019-06-14 22:00:00 16.8 13 Oeste 33 Oeste 0 -- -- 58
2019-06-14 21:00:00 17.3 16 Oeste 41 Sudoeste 0 -- -- 59
2019-06-14 20:00:00 18.8 22 Oeste 39 Oeste 0 -- -- 54
2019-06-14 19:00:00 19.6 19 Oeste 40 Sudoeste 0 -- -- 49
2019-06-14 18:00:00 19.2 19 Oeste 33 Oeste 0 -- -- 48
2019-06-14 17:00:00 19.2 20 Oeste 37 Oeste 0 -- -- 47
2019-06-14 16:00:00 19.7 15 Oeste 41 Oeste 0 -- -- 47
2019-06-14 15:00:00 19.3 17 Oeste 38 Oeste 0 -- -- 44
2019-06-14 14:00:00 19.5 19 Oeste 44 Oeste 0 -- -- 43
2019-06-14 13:00:00 19 18 Oeste 39 Oeste 0 -- -- 48
2019-06-14 12:00:00 18.1 17 Oeste 30 Oeste 0 -- -- 62
2019-06-14 11:00:00 17.2 12 Oeste 24 Oeste 0 -- -- 68
2019-06-14 10:00:00 16.4 10 Oeste 21 Sudoeste 0 -- -- 71
2019-06-14 09:00:00 15.8 9 Oeste 31 Sudoeste 0 -- -- 73
2019-06-14 08:00:00 15.7 17 Sudoeste 34 Oeste 0 -- -- 76
2019-06-14 07:00:00 15.3 18 Sudoeste 32 Sudoeste 0 -- -- 77
2019-06-14 06:00:00 15.2 19 Sudoeste 44 Sudoeste 0 -- -- 76
2019-06-14 05:00:00 15.5 22 Sudoeste 39 Sudoeste 0 -- -- 76
2019-06-14 04:00:00 15.5 19 Sudoeste 32 Sudoeste 0 -- -- 79
2019-06-14 03:00:00 16 17 Sudoeste 27 Sudoeste 0 -- -- 79
2019-06-14 02:00:00 16.7 14 Sudoeste 26 Sudoeste 0 -- -- 78
2019-06-14 01:00:00 17.4 12 Sudoeste 19 Oeste 0 -- -- 77
2019-06-14 00:00:00 17.3 12 Oeste 22 Sudoeste 0 -- -- 77
2019-06-13 23:00:00 17.7 12 Oeste 19 Oeste 0 -- -- 73
2019-06-13 22:00:00 18.2 10 Oeste 23 Oeste 0 -- -- 67
2019-06-13 21:00:00 19.7 12 Oeste 24 Oeste 0 -- -- 52
2019-06-13 20:00:00 20.3 14 Oeste 30 Oeste 0 -- -- 52
2019-06-13 19:00:00 21.9 15 Oeste 32 Oeste 0 -- -- 56
2019-06-13 18:00:00 23.4 15 Oeste 29 Oeste 0 -- -- 55
2019-06-13 17:00:00 24.3 2 Oeste 15 Nordeste 0 -- -- 53
2019-06-13 16:00:00 25.2 3 Nordeste 20 Este 0 -- -- 49
2019-06-13 15:00:00 24.2 8 Este 22 Este 0 -- -- 52
2019-06-13 14:00:00 23.4 7 Este 22 Este 0 -- -- 54
2019-06-13 13:00:00 22.3 9 Este 30 Este 0 -- -- 56
2019-06-13 12:00:00 21.9 10 Este 27 Este 0 -- -- 60
2019-06-13 11:00:00 21.7 15 Este 30 Este 0 -- -- 60
2019-06-13 10:00:00 20.5 12 Este 29 Este 0 -- -- 68
2019-06-13 09:00:00 18.4 9 Este 19 Este 0 -- -- 79
2019-06-13 08:00:00 16.8 8 Nordeste 18 Nordeste 0 -- -- 85
2019-06-13 07:00:00 16.4 9 Nordeste 20 Nordeste 0 -- -- 86
2019-06-13 06:00:00 16.3 8 Nordeste 23 Nordeste 0 -- -- 85
2019-06-13 05:00:00 16.3 10 Este 23 Este 0 -- -- 85
2019-06-13 04:00:00 16.3 9 Este 28 Este 0 -- -- 87
2019-06-13 03:00:00 16.6 11 Este 22 Este 0 -- -- 86
2019-06-13 02:00:00 16.5 8 Este 19 Este 0 -- -- 86
2019-06-13 01:00:00 17 8 Este 21 Este 0 -- -- 85
2019-06-13 00:00:00 17.1 8 Este 19 Este 0 -- -- 84
2019-06-12 23:00:00 18 9 Este 30 Este 0 -- -- 77
2019-06-12 22:00:00 18.9 10 Este 30 Este 0 -- -- 71
2019-06-12 21:00:00 20.3 11 Este 32 Este 0 -- -- 64
2019-06-12 20:00:00 22 12 Este 27 Nordeste 0 -- -- 55
2019-06-12 19:00:00 23.2 15 Este 33 Este 0 -- -- 51
2019-06-12 18:00:00 24.3 16 Este 40 Este 0 -- -- 47
2019-06-12 17:00:00 24.7 19 Este 39 Este 0 -- -- 45
2019-06-12 16:00:00 24.7 18 Este 39 Este 0 -- -- 44
2019-06-12 15:00:00 25.2 15 Este 45 Este 0 -- -- 44
2019-06-12 14:00:00 24.9 18 Este 45 Este 0 -- -- 47
2019-06-12 13:00:00 23.9 19 Este 46 Este 0 -- -- 49
2019-06-12 12:00:00 23 19 Este 51 Este 0 -- -- 54
2019-06-12 11:00:00 21.9 18 Este 51 Este 0 -- -- 59
2019-06-12 10:00:00 20.5 17 Este 48 Este 0 -- -- 66
2019-06-12 09:00:00 18.8 17 Este 46 Este 0 -- -- 74
2019-06-12 08:00:00 17.7 17 Este 35 Este 0 -- -- 79
2019-06-12 07:00:00 16.3 13 Este 26 Este 0 -- -- 85
2019-06-12 06:00:00 15.8 9 Este 25 Este 0 -- -- 90
2019-06-12 05:00:00 16.7 5 Sur 15 Sur 0 -- -- 94
2019-06-12 04:00:00 16.4 8 Sur 18 Sur 0 -- -- 94
2019-06-12 03:00:00 16.2 7 Sur 18 Sur 0 -- -- 94
2019-06-12 02:00:00 16.3 9 Sur 18 Sur 0 -- -- 92
2019-06-12 01:00:00 16.3 4 Sudoeste 9 Sudoeste 0 -- -- 83
2019-06-12 00:00:00 17.1 6 Sudoeste 12 Oeste 0 -- -- 80
2019-06-11 23:00:00 16.9 5 Sudoeste 9 Sudoeste 0 -- -- 83
2019-06-11 22:00:00 17.6 6 Oeste 23 Oeste 0 -- -- 80
2019-06-11 21:00:00 18.5 17 Oeste 34 Oeste 0 -- -- 73
2019-06-11 20:00:00 20.4 21 Oeste 37 Oeste 0 -- -- 66
2019-06-11 19:00:00 20.5 22 Oeste 37 Oeste 0 -- -- 60
2019-06-11 18:00:00 21.2 21 Oeste 37 Oeste 0 -- -- 60
2019-06-11 17:00:00 21.3 22 Oeste 39 Oeste 0 -- -- 55
2019-06-11 16:00:00 20.9 23 Oeste 43 Oeste 0 -- -- 57
2019-06-11 15:00:00 20.2 22 Oeste 43 Sudoeste 0 -- -- 56
2019-06-11 14:00:00 19.3 19 Oeste 39 Oeste 0 -- -- 61
2019-06-11 13:00:00 19.1 18 Oeste 37 Oeste 0 -- -- 60
2019-06-11 12:00:00 18.7 22 Oeste 36 Oeste 0 -- -- 59
2019-06-11 11:00:00 18 18 Oeste 31 Oeste 0 -- -- 61
2019-06-11 10:00:00 17.4 15 Oeste 28 Oeste 0 -- -- 63
2019-06-11 09:00:00 16 13 Oeste 23 Oeste 0 -- -- 68
2019-06-11 08:00:00 15.5 10 Oeste 21 Oeste 0 -- -- 60
2019-06-11 07:00:00 16.2 10 Oeste 21 Oeste 0 -- -- 54
2019-06-11 06:00:00 16.5 12 Oeste 22 Oeste 0 -- -- 52
2019-06-11 05:00:00 16.3 9 Oeste 15 Oeste 0 -- -- 80
2019-06-11 04:00:00 16.5 8 Oeste 15 Oeste 0 -- -- 89
2019-06-11 03:00:00 16.3 11 Sudoeste 18 Sudoeste 0 -- -- 90
2019-06-11 02:00:00 16.2 10 Sudoeste 17 Sudoeste 0 -- -- 89
2019-06-11 01:00:00 16.1 8 Sudoeste 19 Oeste 0 -- -- 82
2019-06-11 00:00:00 16.5 12 Oeste 28 Oeste 0 -- -- 82
2019-06-10 23:00:00 16.6 17 Oeste 29 Oeste 0 -- -- 83
2019-06-10 22:00:00 17.1 18 Oeste 31 Oeste 0 -- -- 77
2019-06-10 21:00:00 18.4 20 Oeste 36 Oeste 0 -- -- 68
2019-06-10 20:00:00 20.1 21 Oeste 37 Sudoeste 0 -- -- 61
2019-06-10 19:00:00 20.4 23 Oeste 41 Sudoeste 0 -- -- 54
2019-06-10 18:00:00 20.8 24 Oeste 43 Sudoeste 0 -- -- 56
2019-06-10 17:00:00 20.9 24 Sudoeste 39 Oeste 0 -- -- 58
2019-06-10 16:00:00 21.8 21 Oeste 37 Oeste 0 -- -- 56
2019-06-10 15:00:00 20.4 20 Oeste 36 Sudoeste 0 -- -- 59
2019-06-10 14:00:00 20.7 19 Oeste 35 Sudoeste 0 -- -- 60
2019-06-10 13:00:00 20.4 18 Oeste 35 Oeste 0 -- -- 61
2019-06-10 12:00:00 20.3 17 Sudoeste 29 Sudoeste 0 -- -- 63
2019-06-10 11:00:00 19.8 12 Oeste 24 Sudoeste 0 -- -- 67
2019-06-10 10:00:00 18.5 10 Oeste 22 Oeste 0 -- -- 73
2019-06-10 09:00:00 16.9 12 Oeste 22 Oeste 0 -- -- 82
2019-06-10 08:00:00 15.5 6 Oeste 13 Oeste 0 -- -- 86
2019-06-10 07:00:00 15.2 8 Oeste 21 Oeste 0 -- -- 86
2019-06-10 06:00:00 15.5 13 Oeste 22 Oeste 0 -- -- 83
2019-06-10 05:00:00 16 13 Oeste 22 Oeste 0 -- -- 81
2019-06-10 04:00:00 16.4 11 Oeste 20 Oeste 0 -- -- 78
2019-06-10 03:00:00 16.7 9 Oeste 19 Oeste 0 -- -- 74
2019-06-10 02:00:00 17.4 10 Oeste 21 Oeste 0 -- -- 79
2019-06-10 01:00:00 17.3 11 Oeste 22 Sudoeste 0 -- -- 84
2019-06-10 00:00:00 16.9 12 Sudoeste 22 Sudoeste 0 -- -- 86
2019-06-09 23:00:00 16.8 10 Sudoeste 20 Oeste 0 -- -- 84
2019-06-09 22:00:00 17.5 13 Oeste 31 Oeste 0 -- -- 73
2019-06-09 21:00:00 18.6 21 Oeste 40 Sudoeste 0 -- -- 61
2019-06-09 20:00:00 20.1 19 Oeste 36 Sudoeste 0 -- -- 49
2019-06-09 19:00:00 20.9 20 Oeste 34 Oeste 0 -- -- 48
2019-06-09 18:00:00 22.2 18 Oeste 35 Oeste 0 -- -- 43
2019-06-09 17:00:00 22.5 20 Oeste 32 Oeste 0 -- -- 38
2019-06-09 16:00:00 22.2 16 Oeste 33 Oeste 0 -- -- 50
2019-06-09 15:00:00 21.7 17 Oeste 32 Oeste 0 -- -- 53
2019-06-09 14:00:00 21.9 14 Sudoeste 26 Sudoeste 0 -- -- 57
2019-06-09 13:00:00 20.4 15 Sudoeste 26 Sudoeste 0 -- -- 57
2019-06-09 12:00:00 19.7 14 Sudoeste 27 Sudoeste 0 -- -- 64
2019-06-09 11:00:00 19.1 13 Sudoeste 28 Sudoeste 0 -- -- 74
2019-06-09 10:00:00 18.1 14 Sudoeste 27 Sudoeste 0 -- -- 83
2019-06-09 09:00:00 17.7 6 Sur 15 Sudeste 0 -- -- 89
2019-06-09 08:00:00 17 9 Sudeste 17 Sudeste 0 -- -- 88
2019-06-09 07:00:00 16.9 4 Sudeste 13 Sudeste 0 -- -- 82
2019-06-09 06:00:00 17.8 5 Sur 10 Sudoeste 0 -- -- 78
2019-06-09 05:00:00 17.7 4 Oeste 9 Oeste 0 -- -- 66
2019-06-09 04:00:00 17 4 Oeste 9 Oeste 0 -- -- 82
2019-06-09 03:00:00 17.8 3 Oeste 6 Oeste 0 -- -- 77
2019-06-09 02:00:00 18 0 Calma 5 Oeste 0 -- -- 74
2019-06-09 01:00:00 18.3 2 Oeste 13 Oeste 0 -- -- 73
2019-06-09 00:00:00 18.2 9 Oeste 17 Oeste 0 -- -- 76
2019-06-08 23:00:00 18.6 5 Oeste 15 Oeste 0 -- -- 78
2019-06-08 22:00:00 19.1 7 Oeste 18 Oeste 0 -- -- 62
2019-06-08 21:00:00 20.6 10 Oeste 17 Oeste 0 -- -- 52
2019-06-08 20:00:00 23.4 10 Oeste 24 Sudoeste 0 -- -- 46
2019-06-08 19:00:00 24.9 6 Oeste 18 Sudoeste 0 -- -- 46
2019-06-08 18:00:00 25 9 Oeste 23 Sudoeste 0 -- -- 46
2019-06-08 17:00:00 25.7 10 Sudoeste 21 Sudoeste 0 -- -- 44
2019-06-08 16:00:00 28.2 6 Sudeste 21 Este 0 -- -- 35
2019-06-08 15:00:00 28.2 8 Sudeste 18 Sur 0 -- -- 35
2019-06-08 14:00:00 26.6 7 Sudeste 19 Este 0 -- -- 39
2019-06-08 13:00:00 25 8 Sudeste 17 Sur 0 -- -- 44
2019-06-08 12:00:00 23.8 6 Sudeste 21 Este 0 -- -- 48
2019-06-08 11:00:00 21.8 6 Sudeste 15 Sur 0 -- -- 56
2019-06-08 10:00:00 19 5 Sudeste 15 Sudeste 0 -- -- 71
2019-06-08 09:00:00 16.1 5 Sur 14 Sur 0 -- -- 89
2019-06-08 08:00:00 15.7 7 Sur 15 Sur 0 -- -- 94
2019-06-08 07:00:00 15.4 4 Sudoeste 8 Sudoeste 0 -- -- 90
2019-06-08 06:00:00 15.5 5 Sudoeste 11 Sudoeste 0 -- -- 81
2019-06-08 05:00:00 15.6 3 Este 5 Este 0 -- -- 74
2019-06-08 04:00:00 15.6 3 Este 7 Norte 0 -- -- 76
2019-06-08 03:00:00 16.1 4 Noroeste 10 Noroeste 0 -- -- 72
2019-06-08 02:00:00 17.4 5 Noroeste 12 Oeste 0 -- -- 68
2019-06-08 01:00:00 17.5 6 Oeste 21 Oeste 0 -- -- 65
2019-06-08 00:00:00 17.6 12 Oeste 27 Oeste 0 -- -- 63
2019-06-07 23:00:00 17.4 15 Oeste 30 Oeste 0 -- -- 66
2019-06-07 22:00:00 17.8 15 Oeste 25 Oeste 0 -- -- 63
2019-06-07 21:00:00 20 15 Oeste 30 Oeste 0 -- -- 49
2019-06-07 20:00:00 22.2 15 Oeste 35 Oeste 0 -- -- 41
2019-06-07 19:00:00 22.4 17 Oeste 35 Oeste 0 -- -- 43
2019-06-07 18:00:00 22.9 21 Oeste 33 Oeste 0 -- -- 41
2019-06-07 17:00:00 22.7 18 Sudoeste 33 Sudoeste 0 -- -- 41
2019-06-07 16:00:00 22.6 17 Oeste 34 Oeste 0 -- -- 42
2019-06-07 15:00:00 22.9 16 Oeste 31 Sudoeste 0 -- -- 41
2019-06-07 14:00:00 22.9 9 Oeste 30 Oeste 0 -- -- 39
2019-06-07 13:00:00 21.8 6 Noroeste 21 Noroeste 0 -- -- 42
2019-06-07 12:00:00 20.5 7 Noroeste 19 Oeste 0 -- -- 49
2019-06-07 11:00:00 18.7 8 Noroeste 19 Noroeste 0 -- -- 62
2019-06-07 10:00:00 17.2 6 Noroeste 16 Norte 0 -- -- 77
2019-06-07 09:00:00 15.9 7 Noroeste 18 Noroeste 0.1 -- -- 89
2019-06-07 08:00:00 16 8 Oeste 19 Oeste 0.7 -- -- 95
2019-06-07 07:00:00 16.1 10 Oeste 19 Oeste 0.5 -- -- 94
2019-06-07 06:00:00 16.5 10 Oeste 22 Sudoeste 0 -- -- 86
2019-06-07 05:00:00 16.5 11 Oeste 23 Oeste 0 -- -- 84
2019-06-07 04:00:00 16.4 12 Oeste 23 Sudoeste 0 -- -- 83
2019-06-07 03:00:00 16.1 14 Oeste 25 Oeste 0 -- -- 82
2019-06-07 02:00:00 16.2 13 Oeste 29 Oeste 0 -- -- 79
2019-06-07 01:00:00 16.2 15 Oeste 30 Oeste 0 -- -- 78
2019-06-07 00:00:00 16.4 18 Oeste 33 Oeste 0 -- -- 79
2019-06-06 23:00:00 16.4 17 Oeste 32 Oeste 0 -- -- 77
2019-06-06 22:00:00 16.6 17 Oeste 34 Oeste 0 -- -- 74
2019-06-06 21:00:00 17.7 17 Oeste 36 Oeste 0 -- -- 65
2019-06-06 20:00:00 19.1 19 Oeste 37 Oeste 0 -- -- 49
2019-06-06 19:00:00 20.6 16 Oeste 39 Oeste 0 -- -- 42
2019-06-06 18:00:00 21.1 20 Oeste 44 Sudoeste 0 -- -- 37
2019-06-06 17:00:00 21.4 17 Oeste 35 Oeste 0 -- -- 36
2019-06-06 16:00:00 22.3 15 Oeste 35 Oeste 0 -- -- 37
2019-06-06 15:00:00 22.8 14 Oeste 31 Oeste 0 -- -- 38
2019-06-06 14:00:00 22.7 15 Oeste 27 Oeste 0 -- -- 38
2019-06-06 13:00:00 23.1 13 Oeste 24 Oeste 0 -- -- 38
2019-06-06 12:00:00 22.5 9 Sudoeste 15 Sudoeste 0 -- -- 35
2019-06-06 11:00:00 20.4 2 Noroeste 10 Noroeste 0 -- -- 43
2019-06-06 10:00:00 17.4 4 Noroeste 9 Oeste 0 -- -- 48
2019-06-06 09:00:00 15.4 3 Noroeste 14 Noroeste 0 -- -- 52
2019-06-06 08:00:00 14.5 8 Noroeste 17 Noroeste 0 -- -- 53
2019-06-06 07:00:00 14.5 8 Noroeste 17 Noroeste 0 -- -- 54
2019-06-06 06:00:00 15.2 7 Noroeste 15 Noroeste 0 -- -- 53
2019-06-06 05:00:00 15.7 8 Noroeste 17 Norte 0 -- -- 54
2019-06-06 04:00:00 16.3 8 Noroeste 19 Oeste 0 -- -- 64
2019-06-06 03:00:00 16.3 6 Oeste 19 Oeste 0 -- -- 78
2019-06-06 02:00:00 16.5 12 Oeste 20 Oeste 0 -- -- 76
2019-06-06 01:00:00 16.4 10 Oeste 17 Oeste 0 -- -- 75
2019-06-06 00:00:00 16.7 6 Oeste 26 Oeste 0 -- -- 72
2019-06-05 23:00:00 16.8 13 Oeste 31 Oeste 0 -- -- 70
2019-06-05 22:00:00 17.2 18 Oeste 35 Oeste 0 -- -- 67
2019-06-05 21:00:00 17.7 18 Oeste 40 Oeste 0 -- -- 65
2019-06-05 20:00:00 18.8 22 Oeste 41 Oeste 0 -- -- 56
2019-06-05 19:00:00 20.3 19 Oeste 42 Oeste 0 -- -- 53
2019-06-05 18:00:00 20.2 21 Oeste 43 Oeste 0 -- -- 50
2019-06-05 17:00:00 20 21 Oeste 40 Oeste 0 -- -- 49
2019-06-05 16:00:00 20.4 21 Oeste 40 Sudoeste 0 -- -- 49
2019-06-05 15:00:00 20.3 20 Oeste 41 Oeste 0 -- -- 50
2019-06-05 14:00:00 20 18 Oeste 40 Oeste 0 -- -- 49
2019-06-05 13:00:00 20.4 13 Oeste 31 Oeste 0 -- -- 47
2019-06-05 12:00:00 19.3 10 Noroeste 23 Norte 0 -- -- 44
2019-06-05 11:00:00 17.5 13 Noroeste 31 Noroeste 0 -- -- 47
2019-06-05 10:00:00 16.7 14 Noroeste 32 Oeste 0 -- -- 54
2019-06-05 09:00:00 15.4 12 Noroeste 26 Oeste 0 -- -- 61
2019-06-05 08:00:00 14.5 10 Noroeste 24 Noroeste 0 -- -- 66
2019-06-05 07:00:00 14.9 10 Noroeste 26 Noroeste 0 -- -- 62
2019-06-05 06:00:00 15.8 10 Noroeste 24 Oeste 0 -- -- 62
2019-06-05 05:00:00 16.3 10 Noroeste 27 Noroeste 0 -- -- 64
2019-06-05 04:00:00 17 12 Noroeste 35 Oeste 0 -- -- 68
2019-06-05 03:00:00 17.3 14 Oeste 31 Oeste 0 -- -- 74
2019-06-05 02:00:00 17.7 13 Oeste 31 Sudoeste 0 -- -- 84
2019-06-05 01:00:00 18 15 Oeste 31 Sudoeste 0 -- -- 89
2019-06-05 00:00:00 18.2 17 Oeste 33 Sudoeste 0 -- -- 89
2019-06-04 23:00:00 18 20 Oeste 34 Oeste 0 -- -- 89
2019-06-04 22:00:00 18.3 17 Oeste 33 Oeste 0 -- -- 85
2019-06-04 21:00:00 19.3 17 Oeste 39 Oeste 0 -- -- 77
2019-06-04 20:00:00 19.9 21 Oeste 40 Oeste 0 -- -- 74
2019-06-04 19:00:00 20.1 23 Oeste 35 Oeste 0 -- -- 70
2019-06-04 18:00:00 23.1 19 Oeste 39 Oeste 0 -- -- 59
2019-06-04 17:00:00 22.6 24 Oeste 40 Sudoeste 0 -- -- 59
2019-06-04 16:00:00 22.7 21 Oeste 35 Oeste 0 -- -- 54
2019-06-04 15:00:00 24 18 Oeste 33 Oeste 0 -- -- 52
2019-06-04 14:00:00 23.8 15 Oeste 28 Oeste 0 -- -- 54
2019-06-04 13:00:00 23.6 14 Oeste 26 Oeste 0 -- -- 59
2019-06-04 12:00:00 23.2 13 Oeste 21 Oeste 0 -- -- 62
2019-06-04 11:00:00 22.4 7 Sudoeste 15 Sudoeste 0 -- -- 64
2019-06-04 10:00:00 19.9 4 Oeste 19 Oeste 0 -- -- 78
2019-06-04 09:00:00 18 4 Sudoeste 16 Sudoeste 0 -- -- 91
2019-06-04 08:00:00 16.7 7 Sudoeste 13 Sudoeste 0 -- -- 92
2019-06-04 07:00:00 16.4 9 Sudoeste 13 Sudoeste 0 -- -- 82
2019-06-04 06:00:00 16.9 6 Sudoeste 14 Sudoeste 0 -- -- 76
2019-06-04 05:00:00 18 6 Sudoeste 15 Oeste 0 -- -- 56
2019-06-04 04:00:00 19.5 8 Oeste 13 Oeste 0 -- -- 50
2019-06-04 03:00:00 19.8 0 Calma 6 Este 0 -- -- 49
2019-06-04 02:00:00 19.4 5 Este 8 Este 0 -- -- 52
2019-06-04 01:00:00 20.5 2 Oeste 13 Oeste 0 -- -- 46
2019-06-04 00:00:00 21.5 9 Oeste 18 Oeste 0 -- -- 46
2019-06-03 23:00:00 21.2 10 Oeste 17 Oeste 0 -- -- 50
2019-06-03 22:00:00 23.4 5 Norte 12 Norte 0 -- -- 36
2019-06-03 21:00:00 25.4 4 Este 13 Este 0 -- -- 29
2019-06-03 20:00:00 28.4 6 Este 17 Este 0 -- -- 25
2019-06-03 19:00:00 30.2 9 Este 21 Este 0 -- -- 24
2019-06-03 18:00:00 30.6 9 Este 26 Este 0 -- -- 23
2019-06-03 17:00:00 31 11 Este 23 Este 0 -- -- 25
2019-06-03 16:00:00 31.3 10 Este 27 Este 0 -- -- 25
2019-06-03 15:00:00 30.3 11 Este 30 Este 0 -- -- 29
2019-06-03 14:00:00 29 12 Este 28 Este 0 -- -- 32
2019-06-03 13:00:00 27.7 13 Este 26 Este 0 -- -- 36
2019-06-03 12:00:00 26.2 13 Este 28 Este 0 -- -- 39
2019-06-03 11:00:00 25.1 12 Este 28 Este 0 -- -- 41
2019-06-03 10:00:00 22.4 11 Este 23 Este 0 -- -- 49
2019-06-03 09:00:00 19.7 9 Este 21 Este 0 -- -- 55
2019-06-03 08:00:00 18.4 9 Este 20 Este 0 -- -- 53
2019-06-03 07:00:00 17.8 10 Nordeste 24 Nordeste 0 -- -- 52
2019-06-03 06:00:00 17.9 11 Nordeste 28 Este 0 -- -- 54
2019-06-03 05:00:00 17.5 11 Este 23 Este 0 -- -- 55
2019-06-03 04:00:00 18.3 12 Este 38 Este 0 -- -- 51
2019-06-03 03:00:00 19 16 Este 38 Este 0 -- -- 49
2019-06-03 02:00:00 19.4 15 Este 39 Este 0 -- -- 47
2019-06-03 01:00:00 19.8 18 Este 42 Este 0 -- -- 47
2019-06-03 00:00:00 19.7 13 Este 34 Este 0 -- -- 47
2019-06-02 23:00:00 19.7 15 Este 40 Este 0 -- -- 47
2019-06-02 22:00:00 20.4 15 Este 34 Este 0 -- -- 46
2019-06-02 21:00:00 21.9 16 Este 37 Este 0 -- -- 41
2019-06-02 20:00:00 24.2 15 Este 39 Este 0 -- -- 37
2019-06-02 19:00:00 25.7 17 Este 47 Este 0 -- -- 33
2019-06-02 18:00:00 26.8 19 Este 47 Este 0 -- -- 32
2019-06-02 17:00:00 26.6 21 Este 49 Este 0 -- -- 35
2019-06-02 16:00:00 26.8 20 Este 49 Este 0 -- -- 38
2019-06-02 15:00:00 26.8 19 Este 48 Este 0 -- -- 39
2019-06-02 14:00:00 26.1 20 Este 51 Este 0 -- -- 40
2019-06-02 13:00:00 26 22 Este 45 Este 0 -- -- 43
2019-06-02 12:00:00 24.6 19 Este 42 Este 0 -- -- 45
2019-06-02 11:00:00 23.4 18 Este 45 Este 0 -- -- 45
2019-06-02 10:00:00 21.7 19 Este 49 Este 0 -- -- 50
2019-06-02 09:00:00 19.7 21 Este 50 Este 0 -- -- 54
2019-06-02 08:00:00 18.5 19 Este 52 Este 0 -- -- 56
2019-06-02 07:00:00 18.3 19 Este 46 Este 0 -- -- 54
2019-06-02 06:00:00 18.4 18 Este 42 Este 0 -- -- 55
2019-06-02 05:00:00 18.6 20 Este 45 Este 0 -- -- 54
2019-06-02 04:00:00 19 18 Este 40 Nordeste 0 -- -- 53
2019-06-02 03:00:00 18.8 12 Este 31 Este 0 -- -- 54
2019-06-02 02:00:00 18.9 14 Este 45 Este 0 -- -- 54
2019-06-02 01:00:00 18.7 21 Este 51 Este 0 -- -- 56
2019-06-02 00:00:00 18.7 20 Este 44 Este 0 -- -- 59
2019-06-01 23:00:00 19 18 Este 43 Este 0 -- -- 59
2019-06-01 22:00:00 19.4 16 Este 43 Este 0 -- -- 56
2019-06-01 21:00:00 20.6 19 Este 54 Este 0 -- -- 51
2019-06-01 20:00:00 22.2 24 Este 61 Este 0 -- -- 45
2019-06-01 19:00:00 23.2 26 Este 56 Este 0 -- -- 43
2019-06-01 18:00:00 23.9 28 Este 60 Este 0 -- -- 44
2019-06-01 17:00:00 24.4 23 Este 58 Este 0 -- -- 45
2019-06-01 16:00:00 24.6 26 Este 55 Este 0 -- -- 45
2019-06-01 15:00:00 24.5 23 Este 57 Este 0 -- -- 44
2019-06-01 14:00:00 24.4 25 Este 62 Este 0 -- -- 47
2019-06-01 13:00:00 22.9 32 Este 64 Este 0 -- -- 53
2019-06-01 12:00:00 22.6 28 Este 64 Este 0 -- -- 54
2019-06-01 11:00:00 22 23 Este 51 Este 0 -- -- 55
2019-06-01 10:00:00 20.6 20 Este 47 Este 0 -- -- 59
2019-06-01 09:00:00 18.8 22 Este 39 Este 0 -- -- 65
2019-06-01 08:00:00 17.3 16 Este 49 Este 0 -- -- 71
2019-06-01 07:00:00 17 21 Este 45 Este 0 -- -- 70
2019-06-01 06:00:00 17.1 17 Este 42 Este 0 -- -- 68
2019-06-01 05:00:00 17.1 17 Este 45 Este 0 -- -- 70
2019-06-01 04:00:00 17.3 18 Este 43 Este 0 -- -- 69
2019-06-01 03:00:00 17.6 21 Este 62 Este 0 -- -- 69
2019-06-01 02:00:00 18 28 Este 59 Este 0 -- -- 67
2019-06-01 01:00:00 17.7 22 Este 62 Este 0 -- -- 70
2019-06-01 00:00:00 17.7 24 Este 59 Sudeste 0 -- -- 69
2019-05-31 23:00:00 18 31 Este 64 Este 0 -- -- 65
2019-05-31 22:00:00 18.6 28 Este 62 Este 0 -- -- 57
2019-05-31 21:00:00 20.2 30 Este 60 Este 0 -- -- 46
2019-05-31 20:00:00 21.2 26 Este 60 Este 0 -- -- 44
2019-05-31 19:00:00 22.3 23 Este 60 Este 0 -- -- 43
2019-05-31 18:00:00 22.9 24 Este 57 Este 0 -- -- 46
2019-05-31 17:00:00 23.6 22 Este 66 Este 0 -- -- 46
2019-05-31 16:00:00 23.5 27 Este 66 Este 0 -- -- 46
2019-05-31 15:00:00 23.5 31 Este 66 Este 0 -- -- 44
2019-05-31 14:00:00 23 27 Este 70 Este 0 -- -- 47
2019-05-31 13:00:00 23.3 29 Este 67 Este 0 -- -- 47
2019-05-31 12:00:00 22 26 Este 63 Este 0 -- -- 51
2019-05-31 11:00:00 21.6 25 Este 62 Este 0 -- -- 54
2019-05-31 10:00:00 20.5 24 Este 60 Este 0 -- -- 61
2019-05-31 09:00:00 18.4 24 Este 51 Nordeste 0 -- -- 70
2019-05-31 08:00:00 17.2 20 Este 48 Este 0 -- -- 74
2019-05-31 07:00:00 16.5 19 Este 47 Este 0 -- -- 78
2019-05-31 06:00:00 16.5 21 Este 49 Este 0 -- -- 78
2019-05-31 05:00:00 16.5 21 Este 46 Este 0 -- -- 78
2019-05-31 04:00:00 16.8 18 Este 40 Este 0 -- -- 75
2019-05-31 03:00:00 17 18 Este 45 Este 0 -- -- 74
2019-05-31 02:00:00 17.1 21 Este 53 Este 0 -- -- 76
2019-05-31 01:00:00 17.2 20 Este 48 Este 0 -- -- 74
2019-05-31 00:00:00 17.3 18 Este 52 Este 0 -- -- 72
2019-05-30 23:00:00 17.6 23 Este 59 Este 0 -- -- 70
2019-05-30 22:00:00 18.9 23 Este 64 Este 0 -- -- 55
2019-05-30 21:00:00 19.8 28 Este 58 Este 0 -- -- 54
2019-05-30 20:00:00 20.8 24 Este 58 Este 0 -- -- 53
2019-05-30 19:00:00 22 24 Este 63 Este 0 -- -- 53
2019-05-30 18:00:00 22.6 31 Este 66 Este 0 -- -- 51
2019-05-30 17:00:00 23.4 26 Este 63 Este 0 -- -- 47
2019-05-30 16:00:00 24.1 20 Este 55 Este 0 -- -- 48
2019-05-30 15:00:00 23.1 26 Este 59 Este 0 -- -- 49
2019-05-30 14:00:00 23.4 25 Este 60 Este 0 -- -- 49
2019-05-30 13:00:00 22.5 24 Este 53 Este 0 -- -- 54
2019-05-30 12:00:00 21.9 23 Este 56 Este 0 -- -- 61
2019-05-30 11:00:00 21.3 21 Este 59 Este 0 -- -- 64
2019-05-30 10:00:00 20.1 20 Este -- -- -- -- -- 68
2019-05-30 09:00:00 18.4 24 Este 58 Este 0 -- -- 72
2019-05-30 08:00:00 17.7 23 Este 54 Este 0 -- -- 69
2019-05-30 07:00:00 17.5 23 Este 51 Este 0 -- -- 66
2019-05-30 06:00:00 17.5 19 Este 46 Nordeste 0 -- -- 67
2019-05-30 05:00:00 17.6 20 Este 45 Este 0 -- -- 71
2019-05-30 04:00:00 17.5 18 Este 43 Este 0 -- -- 73
2019-05-30 03:00:00 17.8 19 Este 39 Este 0 -- -- 73
2019-05-30 02:00:00 17.7 18 Este 45 Este 0 -- -- 75
2019-05-30 01:00:00 17.8 15 Este 49 Este 0 -- -- 78
2019-05-30 00:00:00 18 18 Este 43 Este 0 -- -- 73
2019-05-29 23:00:00 18.4 20 Este 41 Este 0 -- -- 66
2019-05-29 22:00:00 19.2 19 Este 45 Sudeste 0 -- -- 59
2019-05-29 21:00:00 20.4 18 Este 43 Este 0 -- -- 50
2019-05-29 20:00:00 22.3 15 Este 47 Este 0 -- -- 47
2019-05-29 19:00:00 23.4 19 Este 45 Este 0 -- -- 44
2019-05-29 18:00:00 24.3 19 Este 50 Este 0 -- -- 44
2019-05-29 17:00:00 25 20 Este 52 Este 0 -- -- 47
2019-05-29 16:00:00 24.9 22 Este 63 Este 0 -- -- 47
2019-05-29 15:00:00 25.3 22 Este 63 Nordeste 0 -- -- 47
2019-05-29 14:00:00 25.4 22 Este 57 Este 0 -- -- 47
2019-05-29 13:00:00 24.7 21 Este 59 Este 0 -- -- 49
2019-05-29 12:00:00 24.2 22 Este 58 Este 0 -- -- 54
2019-05-29 11:00:00 22.6 23 Este 51 Este 0 -- -- 57
2019-05-29 10:00:00 22.5 19 Este 47 Este 0 -- -- 60
2019-05-29 09:00:00 20.3 23 Este 52 Este 0 -- -- 66
2019-05-29 08:00:00 19.1 18 Este 46 Este 0 -- -- 68
2019-05-29 07:00:00 18.7 18 Este 40 Este 0 -- -- 67
2019-05-29 06:00:00 18.5 16 Este 45 Este 0 -- -- 74
2019-05-29 05:00:00 18.2 19 Este 40 Este 0 -- -- 78
2019-05-29 04:00:00 18.1 10 Este 21 Este 0 -- -- 75
2019-05-29 03:00:00 18.3 6 Nordeste 11 Nordeste 0 -- -- 76
2019-05-29 02:00:00 18.8 4 Nordeste 8 Nordeste 0 -- -- 70
2019-05-29 01:00:00 20 3 Norte 6 Norte 0 -- -- 62
2019-05-29 00:00:00 20 0 Calma 7 Oeste 0 -- -- 61
2019-05-28 23:00:00 20.7 3 Oeste 10 Noroeste 0 -- -- 62
2019-05-28 22:00:00 21.1 6 Oeste 13 Oeste 0 -- -- 61
2019-05-28 21:00:00 21.9 9 Oeste 19 Oeste 0 -- -- 62
2019-05-28 20:00:00 24.9 9 Sudoeste 19 Oeste 0 -- -- 47
2019-05-28 19:00:00 26.6 13 Oeste 26 Oeste 0 -- -- 44
2019-05-28 18:00:00 26.9 17 Oeste 25 Oeste 0 -- -- 43
2019-05-28 17:00:00 27 15 Oeste 26 Sudoeste 0 -- -- 47
2019-05-28 16:00:00 26.8 15 Oeste 28 Oeste 0 -- -- 44
2019-05-28 15:00:00 26.1 18 Oeste 30 Sudoeste 0 -- -- 50
2019-05-28 14:00:00 -- -- -- -- -- -- -- -- --
2019-05-28 13:00:00 26.2 8 Oeste 21 Oeste 0 -- -- 58
2019-05-28 12:00:00 24.8 8 Sudoeste 18 Sudoeste 0 -- -- 59
2019-05-28 11:00:00 25 3 Sur 12 Sudoeste 0 -- -- 57
2019-05-28 10:00:00 22.4 5 Sudeste 12 Este 0 -- -- 73
2019-05-28 09:00:00 20.5 3 Sudeste 8 Sur 0 -- -- 77
2019-05-28 08:00:00 19.5 4 Oeste 7 Oeste 0 -- -- 74
2019-05-28 07:00:00 19.5 4 Noroeste 6 Noroeste 0 -- -- 72
2019-05-28 06:00:00 19.8 0 Calma 5 Noroeste 0 -- -- 67
2019-05-28 05:00:00 21.1 4 Noroeste 11 Norte 0 -- -- 65
2019-05-28 04:00:00 21.1 6 Oeste 13 Oeste 0 -- -- 65
2019-05-28 03:00:00 21.3 8 Oeste 19 Oeste 0 -- -- 60
2019-05-28 02:00:00 23.5 7 Oeste 13 Oeste 0 -- -- 48
2019-05-28 01:00:00 22.7 4 Noroeste 8 Noroeste 0 -- -- 52
2019-05-28 00:00:00 20.5 0 Calma 14 Oeste 0 -- -- 62
2019-05-27 23:00:00 22 8 Noroeste 29 Oeste 0 -- -- 52
2019-05-27 22:00:00 20.6 19 Oeste 29 Oeste 0 -- -- 69
2019-05-27 21:00:00 22.2 18 Oeste 32 Oeste 0 -- -- 57
2019-05-27 20:00:00 24.8 18 Oeste 29 Sudoeste 0 -- -- 46
2019-05-27 19:00:00 26.5 17 Oeste 28 Sudoeste 0 -- -- 41
2019-05-27 18:00:00 27.8 18 Oeste 27 Oeste 0 -- -- 37
2019-05-27 17:00:00 29.8 15 Oeste 24 Oeste 0 -- -- 36
2019-05-27 16:00:00 29.4 14 Oeste 32 Oeste 0 -- -- 36
2019-05-27 15:00:00 28.3 14 Oeste 27 Oeste 0 -- -- 36
2019-05-27 14:00:00 29 12 Oeste 19 Oeste 0 -- -- 36
2019-05-27 13:00:00 28.6 9 Oeste 19 Sudoeste 0 -- -- 37
2019-05-27 12:00:00 28.5 3 Noroeste 10 Norte 0 -- -- 37
2019-05-27 11:00:00 26 3 Nordeste 10 Este 0 -- -- 38
2019-05-27 10:00:00 23.8 4 Este 10 Este 0 -- -- 42
2019-05-27 09:00:00 20.7 5 Nordeste 10 Nordeste 0 -- -- 48
2019-05-27 08:00:00 18.8 4 Nordeste 10 Nordeste 0 -- -- 51
2019-05-27 07:00:00 17.7 4 Nordeste 7 Nordeste 0 -- -- 53
2019-05-27 06:00:00 17.8 5 Nordeste 8 Nordeste 0 -- -- 52
2019-05-27 05:00:00 18 4 Nordeste 10 Nordeste 0 -- -- 52
2019-05-27 04:00:00 19.2 6 Nordeste 10 Nordeste 0 -- -- 47
2019-05-27 03:00:00 19.5 5 Nordeste 10 Nordeste 0 -- -- 46
2019-05-27 02:00:00 19.9 6 Nordeste 10 Nordeste 0 -- -- 46
2019-05-27 01:00:00 20.4 4 Este 8 Este 0 -- -- 45
2019-05-27 00:00:00 20.4 3 Este 9 Este 0 -- -- 47
2019-05-26 23:00:00 21.2 5 Nordeste 11 Nordeste 0 -- -- 43
2019-05-26 22:00:00 22.3 5 Nordeste 9 Sudeste 0 -- -- 43
2019-05-26 21:00:00 22.7 6 Sudeste 17 Sudeste 0 -- -- 40
2019-05-26 20:00:00 24.2 9 Sur 20 Sur 0 -- -- 37
2019-05-26 19:00:00 25.9 11 Sur 23 Sudeste 0 -- -- 36
2019-05-26 18:00:00 26.9 14 Sur 25 Sur 0 -- -- 35
2019-05-26 17:00:00 28.9 8 Este 30 Sudeste 0 -- -- 30
2019-05-26 16:00:00 28.8 10 Este 31 Este 0 -- -- 30
2019-05-26 15:00:00 28.7 8 Este 28 Este 0 -- -- 31
2019-05-26 14:00:00 27.3 8 Nordeste 27 Este 0 -- -- 32
2019-05-26 13:00:00 26.9 11 Este 31 Este 0 -- -- 33
2019-05-26 12:00:00 25.6 10 Este 33 Este 0 -- -- 38
2019-05-26 11:00:00 22.8 13 Este 34 Este 0 -- -- 41
2019-05-26 10:00:00 20.9 17 Este 35 Este 0 -- -- 46
2019-05-26 09:00:00 18.8 13 Este 31 Este 0 -- -- 53
2019-05-26 08:00:00 16.9 10 Este 24 Este 0 -- -- 61
2019-05-26 07:00:00 15.9 10 Este 28 Este 0 -- -- 66
2019-05-26 06:00:00 16.3 12 Este 34 Sudeste 0 -- -- 67
2019-05-26 05:00:00 16.2 11 Este 26 Este 0 -- -- 71
2019-05-26 04:00:00 16 10 Este 33 Este 0 -- -- 76
2019-05-26 03:00:00 16.4 13 Este 30 Este 0 -- -- 81
2019-05-26 02:00:00 16.6 13 Este 27 Este 0 -- -- 83
2019-05-26 01:00:00 17 11 Este 26 Este 0 -- -- 83
2019-05-26 00:00:00 17.6 8 Este 20 Este 0 -- -- 72